To NAV CANADA Home Page Login to a new session Search on AWWS site Feedback and Comments Disclaimer Vers la page française équivalente Tips FAQ What's new on the site To the Forecasts and Observations / NOTAM section To "File a Flight Plan" website Publications and other links Update of the User's profile FIC Telephone Numbers My Weather Data Folder Route Weather Data Regional Weather Data Local Weather Data To the Forecasts and Observations / NOTAM section
Request Generated 09/29/2016 at 20:20:36 UTC . Weather information available at that time is displayed.

METAR/TAF

GOOSE BAY/NL    

METAR CYYR 292000Z 30013G18KT 15SM FEW055 FEW250 18/03 A3032 RMK CF1CI0 SLP268=
METAR CYYR 291900Z 27016KT 15SM FEW050 FEW250 18/01 A3032 RMK CF1CI1 SLP271=
METAR CYYR 291800Z 27014G19KT 15SM FEW250 17/M01 A3034 RMK CI1 SLP277=

TAF CYYR 291730Z 2918/3018 24015KT P6SM FEW050 FEW250
BECMG 2922/2924 26008KT
FM300300 26008KT P6SM FEW015 BKN050
FM300900 30008KT P6SM SCT015 OVC030 TEMPO 3009/3014 5SM -SHRA BR
BKN015
FM301600 31015KT P6SM SCT030
RMK NXT FCST BY 300000Z=
Your time UTC time
Weather data provided by Environment Canada and NAV CANADA